Kragnes, Minnesota
Current Conditions -  °F | °C
As of 2:53 AM on Wednesday 22 Oct 2014 (Local Time) from KFAR Reporting Station
Clear Clear  
Wind Chill: 55°   Ceiling: Unl
Heat Index: 55°   Visibility: 10mi
Dew Point: 41°   Wind: 26mph
Humidity: 59%   Direction: 150°SSE
Pressure: 29.89"   Gusts: 36mph
Location:  46.9239°N, 96.7135°W
Report Text: KFAR 220753Z 15023G31KT 10SM CLR 13/05 A2989 RMK AO2 PK WND 14031/0713 SLP123 T01280050
Loading
Personal Weather Stations






























Interactive Weather Map
Tropical Storm Tracking
New forecast layout! Learn more

10-Day Weather Forecast

Advertisements
Track Severe Weather on mobile